Time;durP1;ratioP1;P1;durP2;ratioP2;P2;SDS_P1;SDS_P2;PMS_P1;PMS_P2;Temp;Humidity;BMP_temperature;BMP_pressure;BME280_temperature;BME280_humidity;BME280_pressure;Samples;Min_cycle;Max_cycle;Signal;HPM_P1;HPM_P2
2021/08/02 00:02:15;;;;;;;;;;;;;;;18.23;63.98;101012.53;5038109;28;1936;-39
2021/08/02 00:04:40;;;;;;;;;;;;;;;18.29;64.81;101011.94;5038185;28;1434;-39
2021/08/02 00:07:05;;;;;;;;;;;;;;;18.34;64.43;100993.47;5037788;28;1893;-38
2021/08/02 00:09:30;;;;;;;;;;;;;;;18.37;64.08;100990.50;5038054;28;818;-38
2021/08/02 00:11:55;;;;;;;;;;;;;;;18.37;64.84;100981.53;5037962;28;989;-39
2021/08/02 00:14:20;;;;;;;;;;;;;;;18.38;66.16;100972.44;5036386;28;2019;-40
2021/08/02 00:16:45;;;;;;;;;;;;;;;18.37;65.26;100970.75;5038322;28;994;-39
2021/08/02 00:19:10;;;;;;;;;;;;;;;18.37;65.08;100979.69;5038061;28;965;-40
2021/08/02 00:21:35;;;;;;;;;;;;;;;18.37;65.16;100982.41;5037949;28;2055;-40
2021/08/02 00:24:02;;;;;;;;;;;;;;;18.37;65.54;100979.69;5038206;28;1012;-40
2021/08/02 00:26:27;;;;;;;;;;;;;;;18.35;64.38;100991.63;5037576;28;1918;-38
2021/08/02 00:28:52;;;;;;;;;;;;;;;18.36;65.10;100985.25;5037238;28;1979;-39
2021/08/02 00:31:17;;;;;;;;;;;;;;;18.35;64.66;100989.78;5037632;28;2022;-44
2021/08/02 00:33:42;;;;;;;;;;;;;;;18.35;65.81;100983.53;5036280;28;1500;-42
2021/08/02 00:36:08;;;;;;;;;;;;;;;18.35;65.58;100984.38;5038035;28;1737;-41
2021/08/02 00:38:33;;;;;;;;;;;;;;;18.36;65.06;100982.53;5037544;28;807;-40
2021/08/02 00:40:58;;;;;;;;;;;;;;;18.36;65.25;100990.63;5037557;28;2089;-39
2021/08/02 00:43:23;;;;;;;;;;;;;;;18.34;64.29;100988.06;5037418;28;1064;-40
2021/08/02 00:45:48;;;;;;;;;;;;;;;18.33;65.15;100990.91;5035874;28;1897;-40
2021/08/02 00:48:13;;;;;;;;;;;;;;;18.32;64.81;101005.41;5037163;28;874;-39
2021/08/02 00:50:38;;;;;;;;;;;;;;;18.30;65.23;100997.44;5037345;28;1927;-40
2021/08/02 00:53:04;;;;;;;;;;;;;;;18.27;64.46;101003.13;5037487;28;776;-39
2021/08/02 00:55:29;;;;;;;;;;;;;;;18.27;64.38;101002.31;5037538;28;966;-40
2021/08/02 00:57:54;;;;;;;;;;;;;;;18.23;65.42;100999.06;5037215;28;2030;-39
2021/08/02 01:00:19;;;;;;;;;;;;;;;18.15;65.16;101003.44;5037508;28;1049;-38
2021/08/02 01:02:44;;;;;;;;;;;;;;;18.18;66.46;101004.03;5037278;28;895;-40
2021/08/02 01:05:09;;;;;;;;;;;;;;;18.14;64.19;101005.31;5036554;28;1851;-39
2021/08/02 01:07:34;;;;;;;;;;;;;;;18.19;64.74;101002.19;5036286;28;2007;-39
2021/08/02 01:09:59;;;;;;;;;;;;;;;18.23;65.12;101004.44;5035781;28;1045;-40
2021/08/02 01:12:24;;;;;;;;;;;;;;;18.26;64.54;101000.63;5036837;28;2113;-40
2021/08/02 01:14:49;;;;;;;;;;;;;;;18.24;65.01;101000.75;5036562;28;2035;-40
2021/08/02 01:17:15;;;;;;;;;;;;;;;18.25;64.36;101005.16;5036603;28;2212;-39
2021/08/02 01:19:40;;;;;;;;;;;;;;;18.24;64.66;100999.91;5036948;28;1517;-39
2021/08/02 01:22:05;;;;;;;;;;;;;;;18.25;64.87;101002.47;5037187;28;1060;-39
2021/08/02 01:24:30;;;;;;;;;;;;;;;18.26;64.63;100995.22;5037129;28;1534;-38
2021/08/02 01:26:56;;;;;;;;;;;;;;;18.15;65.92;101001.59;5036344;28;2039;-38
2021/08/02 01:29:21;;;;;;;;;;;;;;;18.17;64.59;101006.84;5036812;28;796;-38
2021/08/02 01:31:46;;;;;;;;;;;;;;;18.13;64.90;101009.00;5036614;28;2049;-38
2021/08/02 01:34:11;;;;;;;;;;;;;;;18.05;65.05;101014.28;5036825;28;2023;-39
2021/08/02 01:36:36;;;;;;;;;;;;;;;18.11;66.26;101008.28;5036903;28;925;-39
2021/08/02 01:39:02;;;;;;;;;;;;;;;18.10;65.66;101013.81;5034862;28;898;-41
2021/08/02 01:41:27;;;;;;;;;;;;;;;18.11;65.14;101013.66;5036531;28;1221;-39
2021/08/02 01:43:52;;;;;;;;;;;;;;;18.15;64.95;101017.78;5036277;28;2072;-37
2021/08/02 01:46:17;;;;;;;;;;;;;;;18.09;65.37;101014.84;5036422;28;1967;-38
2021/08/02 01:48:42;;;;;;;;;;;;;;;18.11;64.67;101008.28;5035653;28;1989;-38
2021/08/02 01:51:07;;;;;;;;;;;;;;;18.13;67.56;101011.69;5035821;28;942;-38
2021/08/02 01:53:32;;;;;;;;;;;;;;;18.15;65.21;101015.09;5035925;28;1541;-39
2021/08/02 01:55:57;;;;;;;;;;;;;;;18.18;64.92;101014.81;5035948;28;1033;-38
2021/08/02 01:58:22;;;;;;;;;;;;;;;18.18;65.81;101020.22;5035726;28;2105;-39
2021/08/02 02:00:47;;;;;;;;;;;;;;;18.18;65.53;101020.22;5036023;28;804;-39
2021/08/02 02:03:12;;;;;;;;;;;;;;;18.16;65.46;101019.50;5035463;28;2015;-39
2021/08/02 02:05:38;;;;;;;;;;;;;;;18.17;64.93;101023.91;5036019;28;1889;-39
2021/08/02 02:08:04;;;;;;;;;;;;;;;18.17;65.25;101017.66;5036028;28;1126;-40
2021/08/02 02:10:29;;;;;;;;;;;;;;;18.17;64.80;101017.66;5036529;28;1954;-41
2021/08/02 02:12:54;;;;;;;;;;;;;;;18.17;65.90;101014.94;5036060;28;1729;-39
2021/08/02 02:15:19;;;;;;;;;;;;;;;18.16;65.20;101016.78;5034039;28;2027;-41
2021/08/02 02:17:44;;;;;;;;;;;;;;;18.17;65.43;101018.50;5035967;28;997;-39
2021/08/02 02:20:09;;;;;;;;;;;;;;;18.17;65.58;101012.25;5036036;28;2073;-40
2021/08/02 02:22:34;;;;;;;;;;;;;;;18.18;64.91;101013.97;5034779;28;910;-39
2021/08/02 02:24:59;;;;;;;;;;;;;;;18.15;65.08;101015.09;5035156;28;2048;-39
2021/08/02 02:27:24;;;;;;;;;;;;;;;18.13;64.95;101009.00;5035429;28;1973;-39
2021/08/02 02:29:49;;;;;;;;;;;;;;;17.95;65.13;101013.41;5035610;28;1061;-39
2021/08/02 02:32:14;;;;;;;;;;;;;;;17.95;65.91;101013.41;5035322;28;1794;-39
2021/08/02 02:34:40;;;;;;;;;;;;;;;17.96;65.01;101015.13;5035267;28;2206;-38
2021/08/02 02:37:05;;;;;;;;;;;;;;;17.99;66.12;101014.84;5035008;28;1988;-39
2021/08/02 02:39:30;;;;;;;;;;;;;;;17.94;64.42;101017.09;5035160;28;899;-41
2021/08/02 02:41:55;;;;;;;;;;;;;;;17.88;64.78;101012.28;5035380;28;894;-39
2021/08/02 02:44:20;;;;;;;;;;;;;;;17.96;65.60;101020.50;5035136;28;1973;-40
2021/08/02 02:46:45;;;;;;;;;;;;;;;17.93;64.14;101010.84;5035169;28;1894;-39
2021/08/02 02:49:10;;;;;;;;;;;;;;;17.79;65.05;101026.63;5035577;28;914;-40
2021/08/02 02:51:35;;;;;;;;;;;;;;;17.76;64.48;101011.56;5035094;28;1474;-40
2021/08/02 02:54:00;;;;;;;;;;;;;;;17.75;64.75;101014.41;5035289;28;2056;-40
2021/08/02 02:56:25;;;;;;;;;;;;;;;17.68;64.84;101015.00;5035495;28;1057;-42
2021/08/02 02:58:50;;;;;;;;;;;;;;;17.68;65.62;101016.84;5035450;28;981;-39
2021/08/02 03:01:15;;;;;;;;;;;;;;;17.71;64.21;101011.16;5035498;28;1683;-39
2021/08/02 03:03:40;;;;;;;;;;;;;;;17.71;64.98;101019.25;5034584;28;1951;-39
2021/08/02 03:06:05;;;;;;;;;;;;;;;17.80;65.52;101014.84;5035309;28;1902;-39
2021/08/02 03:08:31;;;;;;;;;;;;;;;17.75;64.79;101019.78;5034855;28;1122;-40
2021/08/02 03:10:56;;;;;;;;;;;;;;;17.82;65.31;101020.94;5035407;28;1620;-42
2021/08/02 03:13:21;;;;;;;;;;;;;;;17.81;64.43;101011.16;5034777;28;1975;-42
2021/08/02 03:15:46;;;;;;;;;;;;;;;17.83;64.73;101014.56;5034959;28;2046;-40
2021/08/02 03:18:11;;;;;;;;;;;;;;;17.89;65.22;101016.69;5034706;28;1044;-41
2021/08/02 03:20:36;;;;;;;;;;;;;;;17.92;64.98;101011.00;5035287;28;1748;-42
2021/08/02 03:23:01;;;;;;;;;;;;;;;17.79;64.50;101022.06;5035189;28;890;-40
2021/08/02 03:25:26;;;;;;;;;;;;;;;17.86;65.06;101019.66;5034933;28;2244;-41
2021/08/02 03:27:51;;;;;;;;;;;;;;;17.90;65.45;101023.78;5034811;28;1973;-40
2021/08/02 03:30:16;;;;;;;;;;;;;;;17.93;65.92;101018.94;5035162;28;1555;-41
2021/08/02 03:32:42;;;;;;;;;;;;;;;17.94;63.86;101025.19;5034462;28;867;-41
2021/08/02 03:35:07;;;;;;;;;;;;;;;17.93;64.12;101029.72;5038077;28;1647;-41
2021/08/02 03:37:32;;;;;;;;;;;;;;;17.93;65.00;101028.88;5038549;28;2135;-42
2021/08/02 03:39:57;;;;;;;;;;;;;;;17.95;64.41;101032.28;5038335;28;846;-40
2021/08/02 03:42:22;;;;;;;;;;;;;;;17.93;64.38;101032.41;5038882;28;910;-41
2021/08/02 03:44:47;;;;;;;;;;;;;;;17.93;64.94;101037.81;5038409;28;2015;-40
2021/08/02 03:47:12;;;;;;;;;;;;;;;17.94;64.57;101030.59;5038611;28;1867;-39
2021/08/02 03:49:37;;;;;;;;;;;;;;;17.92;64.98;101038.81;5038651;28;998;-40
2021/08/02 03:52:02;;;;;;;;;;;;;;;17.92;65.42;101035.25;5038671;28;1041;-40
2021/08/02 03:54:27;;;;;;;;;;;;;;;17.91;63.79;101045.22;5038255;28;1920;-38
2021/08/02 03:56:53;;;;;;;;;;;;;;;17.90;64.73;101045.38;5038756;28;1002;-39
2021/08/02 03:59:18;;;;;;;;;;;;;;;17.91;64.22;101049.75;5038563;28;973;-39
2021/08/02 04:01:43;;;;;;;;;;;;;;;17.91;64.60;101044.38;5038045;28;2043;-41
2021/08/02 04:04:08;;;;;;;;;;;;;;;17.90;65.24;101048.06;5037988;28;2033;-39
2021/08/02 04:06:33;;;;;;;;;;;;;;;17.89;65.47;101049.91;5037778;28;2140;-39
2021/08/02 04:08:58;;;;;;;;;;;;;;;17.89;64.80;101047.22;5037646;28;1997;-40
2021/08/02 04:11:23;;;;;;;;;;;;;;;17.89;64.90;101049.91;5038452;28;911;-39
2021/08/02 04:13:48;;;;;;;;;;;;;;;17.88;65.96;101055.44;5037677;28;1959;-43
2021/08/02 04:16:13;;;;;;;;;;;;;;;17.89;64.05;101049.06;5038037;28;2135;-42
2021/08/02 04:18:38;;;;;;;;;;;;;;;17.86;65.85;101055.56;5037802;28;903;-39
2021/08/02 04:21:04;;;;;;;;;;;;;;;17.87;64.36;101059.13;5038059;28;1057;-40
2021/08/02 04:23:29;;;;;;;;;;;;;;;17.87;65.13;101057.28;5038229;28;977;-41
2021/08/02 04:25:54;;;;;;;;;;;;;;;17.87;64.50;101070.75;5037711;28;1926;-42
2021/08/02 04:28:19;;;;;;;;;;;;;;;17.86;65.26;101062.81;5037826;28;926;-41
2021/08/02 04:30:44;;;;;;;;;;;;;;;17.83;64.58;101060.38;5030169;28;1640;-39
2021/08/02 04:33:09;;;;;;;;;;;;;;;17.84;64.06;101060.25;5028609;28;1537;-40
2021/08/02 04:35:34;;;;;;;;;;;;;;;17.88;64.11;101061.69;5035242;28;1669;-39
2021/08/02 04:37:59;;;;;;;;;;;;;;;17.92;64.89;101059.53;5028142;28;1688;-40
2021/08/02 04:40:24;;;;;;;;;;;;;;;17.93;64.25;101062.09;5031127;28;1587;-38
2021/08/02 04:42:49;;;;;;;;;;;;;;;17.98;64.67;101067.06;5034197;28;1664;-38
2021/08/02 04:45:14;;;;;;;;;;;;;;;17.98;63.94;101067.91;5035019;28;1783;-38
2021/08/02 04:47:39;;;;;;;;;;;;;;;18.01;64.45;101066.78;5028314;28;1947;-39
2021/08/02 04:50:04;;;;;;;;;;;;;;;18.05;64.13;101068.22;5030853;28;1700;-40
2021/08/02 04:52:30;;;;;;;;;;;;;;;18.09;64.50;101071.47;5033338;28;1619;-40
2021/08/02 04:54:56;;;;;;;;;;;;;;;18.05;63.72;101073.59;5028361;28;1512;-38
2021/08/02 04:57:21;;;;;;;;;;;;;;;18.12;64.25;101082.81;5038129;28;776;-39
2021/08/02 04:59:46;;;;;;;;;;;;;;;18.12;63.85;101081.94;5035779;28;1991;-39
2021/08/02 05:02:12;;;;;;;;;;;;;;;18.08;64.11;101089.50;5033610;28;1515;-38
2021/08/02 05:04:37;;;;;;;;;;;;;;;17.99;63.69;101077.72;5030996;28;1749;-39
2021/08/02 05:07:02;;;;;;;;;;;;;;;17.97;64.28;101084.22;5031764;28;1955;-39
2021/08/02 05:09:27;;;;;;;;;;;;;;;18.06;64.23;101080.69;5035189;28;1734;-40
2021/08/02 05:11:52;;;;;;;;;;;;;;;18.17;64.27;101083.25;5033838;28;1491;-40
2021/08/02 05:14:17;;;;;;;;;;;;;;;18.01;65.20;101088.34;5035465;28;1817;-39
2021/08/02 05:16:43;;;;;;;;;;;;;;;17.93;64.85;101080.97;5033997;28;1812;-38
2021/08/02 05:19:09;;;;;;;;;;;;;;;17.95;65.41;101086.22;5034650;28;1454;-39
2021/08/02 05:21:34;;;;;;;;;;;;;;;18.01;64.66;101094.59;5036287;28;1768;-38
2021/08/02 05:23:59;;;;;;;;;;;;;;;18.01;66.09;101088.34;5036232;28;1357;-38
2021/08/02 05:26:24;;;;;;;;;;;;;;;17.97;64.80;101093.19;5036202;28;1906;-39
2021/08/02 05:28:49;;;;;;;;;;;;;;;18.06;64.79;101098.72;5034839;28;1718;-40
2021/08/02 05:31:14;;;;;;;;;;;;;;;18.12;65.23;101090.91;5035318;28;1686;-39
2021/08/02 05:33:39;;;;;;;;;;;;;;;18.11;65.03;101102.69;5024121;28;1614;-40
2021/08/02 05:36:04;;;;;;;;;;;;;;;18.25;65.76;101098.72;5036438;28;2058;-39
2021/08/02 05:38:29;;;;;;;;;;;;;;;18.36;66.50;101099.41;5032438;28;2517;-40
2021/08/02 05:40:54;;;;;;;;;;;;;;;18.27;66.29;101097.56;5034738;28;1776;-42
2021/08/02 05:43:19;;;;;;;;;;;;;;;18.24;65.77;101111.38;5034934;28;1507;-40
2021/08/02 05:45:44;;;;;;;;;;;;;;;18.17;65.69;101104.81;5034872;28;1949;-41
2021/08/02 05:48:10;;;;;;;;;;;;;;;18.18;66.24;101111.91;5036104;28;1771;-42
2021/08/02 05:50:35;;;;;;;;;;;;;;;18.24;65.78;101105.97;5035946;28;1620;-41
2021/08/02 05:53:00;;;;;;;;;;;;;;;18.28;66.17;101107.38;5035477;28;1559;-41
2021/08/02 05:55:25;;;;;;;;;;;;;;;18.21;65.89;101100.84;5035116;28;1714;-40
2021/08/02 05:57:50;;;;;;;;;;;;;;;18.31;65.96;101098.13;5034944;28;1576;-40
2021/08/02 06:00:15;;;;;;;;;;;;;;;18.49;66.04;101104.50;5034891;28;1732;-40
2021/08/02 06:02:40;;;;;;;;;;;;;;;18.48;65.40;101104.66;5035351;28;1674;-40
2021/08/02 06:05:05;;;;;;;;;;;;;;;18.24;65.70;101108.66;5035063;28;1715;-39
2021/08/02 06:07:31;;;;;;;;;;;;;;;18.21;65.52;101106.25;5032860;28;1906;-41
2021/08/02 06:09:56;;;;;;;;;;;;;;;18.22;65.54;101109.78;5035330;28;1673;-40
2021/08/02 06:12:21;;;;;;;;;;;;;;;18.24;65.61;101099.72;5035082;28;1626;-40
2021/08/02 06:14:46;;;;;;;;;;;;;;;18.42;65.70;101103.41;5034174;28;1694;-41
2021/08/02 06:17:11;;;;;;;;;;;;;;;18.47;65.76;101105.63;5034962;28;1693;-41
2021/08/02 06:19:36;;;;;;;;;;;;;;;18.18;66.22;101111.06;5035574;28;1772;-39
2021/08/02 06:22:01;;;;;;;;;;;;;;;18.20;65.97;101109.09;5035381;28;1684;-40
2021/08/02 06:24:26;;;;;;;;;;;;;;;18.23;66.07;101112.34;5033083;28;1998;-40
2021/08/02 06:26:51;;;;;;;;;;;;;;;18.24;66.07;101116.75;5032901;28;2014;-40
2021/08/02 06:29:17;;;;;;;;;;;;;;;18.06;66.34;101109.50;5033672;28;1720;-40
2021/08/02 06:31:42;;;;;;;;;;;;;;;18.12;66.21;101111.63;5028938;28;1539;-39
2021/08/02 06:34:07;;;;;;;;;;;;;;;18.11;65.72;101113.47;5030222;28;1924;-39
2021/08/02 06:36:32;;;;;;;;;;;;;;;18.06;66.40;101118.47;5026158;28;1636;-38
2021/08/02 06:38:57;;;;;;;;;;;;;;;18.16;66.00;101119.28;5033180;28;1909;-39
2021/08/02 06:41:22;;;;;;;;;;;;;;;18.21;65.65;101119.72;5033933;28;1768;-39
2021/08/02 06:43:47;;;;;;;;;;;;;;;18.04;65.40;101112.34;5030378;28;2400;-39
2021/08/02 06:46:12;;;;;;;;;;;;;;;18.26;65.13;101116.63;5033937;28;1951;-38
2021/08/02 06:48:40;;;;;;;;;;;;;;;18.41;65.70;101112.47;5032786;28;1838;-40
2021/08/02 06:51:05;;;;;;;;;;;;;;;18.50;66.04;101108.91;5034186;28;1639;-38
2021/08/02 06:53:30;;;;;;;;;;;;;;;18.64;65.04;101108.47;5034164;28;1650;-38
2021/08/02 06:55:55;;;;;;;;;;;;;;;18.69;65.17;101110.75;5035086;28;1592;-38
2021/08/02 06:58:20;;;;;;;;;;;;;;;18.66;64.52;101111.03;5034580;28;1753;-38
2021/08/02 07:00:45;;;;;;;;;;;;;;;18.55;65.38;101113.88;5034959;28;895;-38
2021/08/02 07:03:10;;;;;;;;;;;;;;;18.49;65.98;101115.31;5033957;28;2546;-38
2021/08/02 07:05:35;;;;;;;;;;;;;;;18.52;66.98;101116.88;5034807;28;881;-38
2021/08/02 07:08:00;;;;;;;;;;;;;;;18.58;66.59;101119.00;5034304;28;1894;-37
2021/08/02 07:10:25;;;;;;;;;;;;;;;18.71;69.18;101122.25;5035037;28;1045;-38
2021/08/02 07:12:50;;;;;;;;;;;;;;;18.70;68.83;101124.13;5034406;28;2038;-38
2021/08/02 07:15:16;;;;;;;;;;;;;;;18.72;69.18;101126.66;5034947;28;1597;-40
2021/08/02 07:17:41;;;;;;;;;;;;;;;18.51;67.14;101129.50;5035058;28;1801;-38
2021/08/02 07:20:06;;;;;;;;;;;;;;;18.44;66.70;101130.25;5035218;28;986;-39
2021/08/02 07:22:31;;;;;;;;;;;;;;;18.39;65.85;101133.34;5034734;28;1894;-37
2021/08/02 07:24:56;;;;;;;;;;;;;;;18.23;64.93;101138.47;5035233;28;1173;-37
2021/08/02 07:27:21;;;;;;;;;;;;;;;18.26;65.53;101141.75;5035005;28;1971;-37
2021/08/02 07:29:46;;;;;;;;;;;;;;;18.31;66.34;101136.75;5034729;28;890;-37
2021/08/02 07:32:11;;;;;;;;;;;;;;;18.59;66.23;101137.78;5033716;28;1839;-38
2021/08/02 07:34:36;;;;;;;;;;;;;;;18.58;64.83;101143.28;5034570;28;1780;-38
2021/08/02 07:37:01;;;;;;;;;;;;;;;18.60;65.10;101141.34;5034352;28;1936;-38
2021/08/02 07:39:28;;;;;;;;;;;;;;;18.59;64.01;101137.78;5034904;28;972;-39
2021/08/02 07:41:53;;;;;;;;;;;;;;;18.54;65.35;101140.03;5020939;28;2516;-38
2021/08/02 07:44:18;;;;;;;;;;;;;;;18.70;65.03;101144.84;5034479;28;2048;-37
2021/08/02 07:46:43;;;;;;;;;;;;;;;18.75;65.02;101147.97;5034189;28;2061;-38
2021/08/02 07:49:08;;;;;;;;;;;;;;;18.61;64.43;101148.44;5034555;28;1571;-38
2021/08/02 07:51:34;;;;;;;;;;;;;;;18.51;64.08;101155.66;5034420;28;2050;-38
2021/08/02 07:54:01;;;;;;;;;;;;;;;18.47;64.16;101149.66;5034774;28;771;-38
2021/08/02 07:56:28;;;;;;;;;;;;;;;18.58;64.45;101143.28;5034428;28;2071;-41
2021/08/02 07:58:54;;;;;;;;;;;;;;;18.50;64.63;101152.09;5034892;28;957;-37
2021/08/02 08:01:19;;;;;;;;;;;;;;;18.57;64.84;101138.88;5034120;28;1963;-38
2021/08/02 08:03:44;;;;;;;;;;;;;;;18.51;65.67;101155.66;5034465;28;847;-38
2021/08/02 08:06:09;;;;;;;;;;;;;;;18.50;65.35;101148.53;5035162;28;1890;-38
2021/08/02 08:08:34;;;;;;;;;;;;;;;18.48;65.44;101150.53;5034849;28;1173;-38
2021/08/02 08:10:59;;;;;;;;;;;;;;;18.47;64.97;101151.53;5034164;28;1995;-38
2021/08/02 08:13:24;;;;;;;;;;;;;;;18.44;64.67;101144.59;5034182;28;882;-39
2021/08/02 08:15:49;;;;;;;;;;;;;;;18.51;65.76;101158.34;5034232;28;1709;-38
2021/08/02 08:18:14;;;;;;;;;;;;;;;18.45;64.77;101148.13;5034465;28;1076;-38
2021/08/02 08:20:40;;;;;;;;;;;;;;;18.51;65.82;101148.41;5036538;28;1859;-38
2021/08/02 08:23:05;;;;;;;;;;;;;;;18.66;65.27;101152.38;5037301;28;1892;-38
2021/08/02 08:25:30;;;;;;;;;;;;;;;18.63;64.71;101151.84;5037833;28;2108;-38
2021/08/02 08:27:55;;;;;;;;;;;;;;;18.67;64.47;101151.41;5037476;28;1968;-39
2021/08/02 08:30:20;;;;;;;;;;;;;;;18.66;64.33;101152.38;5036735;28;1787;-41
2021/08/02 08:32:45;;;;;;;;;;;;;;;18.61;65.30;101145.75;5036916;28;1659;-38
2021/08/02 08:35:11;;;;;;;;;;;;;;;18.57;64.69;101150.53;5037135;28;1880;-39
2021/08/02 08:37:36;;;;;;;;;;;;;;;18.59;64.89;101147.72;5036891;28;1783;-39
2021/08/02 08:40:01;;;;;;;;;;;;;;;18.49;63.12;101157.63;5031613;28;2773;-40
2021/08/02 08:42:27;;;;;;;;;;;;;;;18.67;62.89;101151.41;5040163;28;1915;-41
2021/08/02 08:44:52;;;;;;;;;;;;;;;18.60;62.26;101161.09;5036980;28;1848;-39
2021/08/02 08:47:17;;;;;;;;;;;;;;;18.62;62.33;101155.53;5028968;28;1898;-39
2021/08/02 08:49:42;;;;;;;;;;;;;;;18.60;63.04;101149.44;5035693;28;1937;-38
2021/08/02 08:52:08;;;;;;;;;;;;;;;18.57;63.10;101144.28;5023271;28;2019;-38
2021/08/02 08:54:33;;;;;;;;;;;;;;;18.61;63.28;101143.03;5036883;28;1981;-39
2021/08/02 08:56:58;;;;;;;;;;;;;;;18.63;62.40;101151.84;5036650;28;2280;-41
2021/08/02 08:59:23;;;;;;;;;;;;;;;18.59;61.80;101145.03;5036711;28;1968;-38
2021/08/02 09:01:48;;;;;;;;;;;;;;;18.58;62.96;101151.38;5034295;28;1725;-39
2021/08/02 09:04:13;;;;;;;;;;;;;;;18.64;63.22;101157.06;5032111;28;1609;-39
2021/08/02 09:06:38;;;;;;;;;;;;;;;18.63;64.08;101159.94;5030798;28;1897;-39
2021/08/02 09:09:03;;;;;;;;;;;;;;;18.65;62.86;101155.22;5029322;28;1838;-40
2021/08/02 09:11:30;;;;;;;;;;;;;;;18.54;60.75;101152.66;5029954;28;1803;-39
2021/08/02 09:13:55;;;;;;;;;;;;;;;18.56;62.21;101164.16;5031957;28;1721;-43
2021/08/02 09:16:25;;;;;;;;;;;;;;;18.56;60.86;101166.88;5031982;28;1855;-40
2021/08/02 09:18:50;;;;;;;;;;;;;;;18.55;61.02;101162.47;5034077;28;1701;-39
2021/08/02 09:21:15;;;;;;;;;;;;;;;18.56;61.34;101159.63;5035817;28;1639;-40
2021/08/02 09:23:40;;;;;;;;;;;;;;;18.67;61.04;101167.59;5032400;28;1629;-41
2021/08/02 09:26:05;;;;;;;;;;;;;;;18.57;60.38;101166.72;5031685;28;2111;-39
2021/08/02 09:28:30;;;;;;;;;;;;;;;18.55;60.01;101170.56;5035869;28;1858;-39
2021/08/02 09:30:55;;;;;;;;;;;;;;;18.66;61.73;101165.03;5032899;28;1764;-39
2021/08/02 09:33:20;;;;;;;;;;;;;;;18.75;61.80;101163.34;5032413;28;1881;-40
2021/08/02 10:27:57;;;;;;;;;;;;;;;18.66;65.34;101178.53;5069938;28;1690;-40
2021/08/02 10:30:22;;;;;;;;;;;;;;;18.69;65.67;101175.53;5062283;28;1559;-40
2021/08/02 10:32:47;;;;;;;;;;;;;;;18.75;63.47;101174.97;5063152;28;1666;-40
2021/08/02 10:35:12;;;;;;;;;;;;;;;18.91;63.88;101174.38;5056059;28;2715;-40
2021/08/02 10:37:37;;;;;;;;;;;;;;;19.11;63.11;101177.91;5059081;28;2046;-40
2021/08/02 10:40:02;;;;;;;;;;;;;;;19.38;64.05;101172.53;5050332;28;1849;-43
2021/08/02 10:42:27;;;;;;;;;;;;;;;19.66;64.01;101166.19;5051435;28;1939;-39
2021/08/02 10:44:53;;;;;;;;;;;;;;;19.91;63.13;101169.16;5047736;28;2094;-40
2021/08/02 10:47:18;;;;;;;;;;;;;;;20.14;63.61;101185.81;5046442;28;1906;-41
2021/08/02 10:49:43;;;;;;;;;;;;;;;20.41;63.37;101178.53;5049938;28;1729;-40
2021/08/02 10:52:08;;;;;;;;;;;;;;;20.62;62.82;101177.31;5050297;28;1836;-43
2021/08/02 10:54:33;;;;;;;;;;;;;;;20.85;62.76;101170.41;5060279;28;2174;-41
2021/08/02 10:56:59;;;;;;;;;;;;;;;20.99;63.05;101168.97;5063263;28;1791;-40
2021/08/02 10:59:25;;;;;;;;;;;;;;;21.17;62.69;101166.19;5050949;28;2350;-40
2021/08/02 11:01:51;;;;;;;;;;;;;;;21.19;62.75;101173.16;5047157;28;1765;-40
2021/08/02 11:04:17;;;;;;;;;;;;;;;21.34;61.97;101168.03;5045454;28;1758;-39
2021/08/02 11:06:44;;;;;;;;;;;;;;;21.52;61.51;101168.78;5047867;28;1903;-41
2021/08/02 11:09:09;;;;;;;;;;;;;;;21.62;61.71;101166.81;5046957;28;1584;-40
2021/08/02 11:11:34;;;;;;;;;;;;;;;21.69;62.16;101164.28;5042858;28;1959;-40
2021/08/02 11:13:59;;;;;;;;;;;;;;;21.76;61.97;101159.91;5049857;28;1798;-41
2021/08/02 11:16:24;;;;;;;;;;;;;;;21.83;62.21;101166.38;5044998;28;1680;-39
2021/08/02 11:18:49;;;;;;;;;;;;;;;21.97;61.39;101162.19;5046352;28;1635;-40
2021/08/02 11:21:15;;;;;;;;;;;;;;;21.80;61.87;101172.13;5032363;28;2174;-44
2021/08/02 11:23:40;;;;;;;;;;;;;;;21.73;60.93;101176.50;5031289;28;1758;-39
2021/08/02 11:26:05;;;;;;;;;;;;;;;21.76;60.82;101166.19;5049397;28;1890;-46
2021/08/02 11:28:30;;;;;;;;;;;;;;;21.76;59.78;101177.03;5047953;28;2138;-44
2021/08/02 11:30:55;;;;;;;;;;;;;;;21.82;59.63;101170.97;5045339;28;1949;-40
2021/08/02 11:33:20;;;;;;;;;;;;;;;21.87;59.41;101175.03;5051217;28;1820;-40
2021/08/02 11:35:45;;;;;;;;;;;;;;;21.87;59.74;101180.44;5054616;28;1737;-45
2021/08/02 11:38:10;;;;;;;;;;;;;;;21.73;59.91;101182.78;5043759;28;2148;-40
2021/08/02 11:40:35;;;;;;;;;;;;;;;21.63;60.26;101192.94;5034223;28;2340;-44
2021/08/02 11:43:01;;;;;;;;;;;;;;;21.39;60.91;101190.09;5036608;28;1798;-41
2021/08/02 11:45:26;;;;;;;;;;;;;;;21.18;60.06;101193.16;5033082;28;1885;-41
2021/08/02 11:47:51;;;;;;;;;;;;;;;21.06;60.65;101189.88;5034828;28;1963;-43
2021/08/02 11:50:17;;;;;;;;;;;;;;;20.91;61.54;101202.28;5033552;28;2026;-44
2021/08/02 11:52:42;;;;;;;;;;;;;;;20.75;61.40;101200.31;5034497;28;1793;-43
2021/08/02 11:55:07;;;;;;;;;;;;;;;20.63;61.63;101200.69;5034479;28;1646;-46
2021/08/02 11:57:32;;;;;;;;;;;;;;;20.53;61.51;101191.81;5037562;28;1849;-42
2021/08/02 11:59:57;;;;;;;;;;;;;;;20.48;61.30;101199.53;5023297;28;1775;-41
2021/08/02 12:02:22;;;;;;;;;;;;;;;20.43;60.32;101200.84;5030162;28;2034;-40
2021/08/02 12:04:47;;;;;;;;;;;;;;;20.39;60.35;101199.47;5017432;28;1672;-41
2021/08/02 12:07:12;;;;;;;;;;;;;;;20.34;61.07;101193.63;5027624;28;1915;-44
2021/08/02 12:09:37;;;;;;;;;;;;;;;20.31;58.74;101198.50;5032108;28;1804;-41
2021/08/02 12:12:03;;;;;;;;;;;;;;;20.27;59.75;101192.53;5020624;28;1830;-41
2021/08/02 12:14:28;;;;;;;;;;;;;;;20.26;59.18;101198.09;5020040;28;1631;-43
2021/08/02 12:16:53;;;;;;;;;;;;;;;20.23;59.51;101196.56;5033895;28;1959;-40
2021/08/02 12:19:18;;;;;;;;;;;;;;;20.22;58.85;101205.69;5027609;28;1880;-39
2021/08/02 12:21:43;;;;;;;;;;;;;;;20.19;58.92;101200.59;5025824;28;1708;-43
2021/08/02 12:24:08;;;;;;;;;;;;;;;20.17;58.72;101202.59;5033193;28;2115;-42
2021/08/02 12:26:33;;;;;;;;;;;;;;;20.14;58.10;101200.19;5031314;28;1903;-42
2021/08/02 12:28:58;;;;;;;;;;;;;;;20.10;58.43;101202.34;5022577;28;1660;-41
2021/08/02 12:31:23;;;;;;;;;;;;;;;20.09;58.31;101206.06;5021422;28;1828;-40
2021/08/02 12:33:49;;;;;;;;;;;;;;;20.08;58.45;101209.75;5035519;28;1870;-41
2021/08/02 12:36:14;;;;;;;;;;;;;;;20.06;58.59;101206.34;5032833;28;1811;-43
2021/08/02 12:38:39;;;;;;;;;;;;;;;20.05;57.40;101210.09;5031679;28;1817;-42
2021/08/02 12:41:07;;;;;;;;;;;;;;;20.04;57.42;101202.13;5018517;28;1733;-41
2021/08/02 12:43:32;;;;;;;;;;;;;;;20.04;57.67;101207.53;5036532;28;1725;-43
2021/08/02 12:45:57;;;;;;;;;;;;;;;20.01;58.08;101207.81;5033887;28;1977;-42
2021/08/02 12:48:23;;;;;;;;;;;;;;;19.98;58.44;101200.88;5032482;28;1973;-40
2021/08/02 12:50:48;;;;;;;;;;;;;;;19.97;58.11;101201.88;5023162;28;1593;-41
2021/08/02 12:53:13;;;;;;;;;;;;;;;20.00;58.69;101200.72;5028140;28;1839;-41
2021/08/02 12:55:38;;;;;;;;;;;;;;;20.03;58.76;101205.81;5032599;28;1779;-40
2021/08/02 12:58:03;;;;;;;;;;;;;;;20.05;58.66;101206.53;5029489;28;2157;-41
2021/08/02 13:00:28;;;;;;;;;;;;;;;20.05;58.48;101199.25;5022625;28;2384;-43
2021/08/02 13:02:54;;;;;;;;;;;;;;;20.04;58.88;101202.13;5015960;28;1918;-39
2021/08/02 13:05:19;;;;;;;;;;;;;;;20.00;58.73;101200.72;5035297;28;2271;-41
2021/08/02 13:07:44;;;;;;;;;;;;;;;19.96;59.18;101202.88;5031655;28;2009;-42
2021/08/02 13:10:09;;;;;;;;;;;;;;;19.93;58.23;101195.03;5035866;28;2281;-41
2021/08/02 13:12:34;;;;;;;;;;;;;;;19.93;59.57;101194.19;5029959;28;2182;-40
2021/08/02 13:15:00;;;;;;;;;;;;;;;19.92;57.57;101203.31;5029234;28;1994;-41
2021/08/02 13:17:25;;;;;;;;;;;;;;;19.91;57.71;101197.03;5031507;28;1968;-41
2021/08/02 13:19:50;;;;;;;;;;;;;;;19.92;58.00;101200.59;5030634;28;2059;-41
2021/08/02 13:22:18;;;;;;;;;;;;;;;19.93;59.09;101205.88;5020040;28;1664;-40
